TRA5612 LICC-EHRD
Flight info
| Callsign | TRA5612 |
|---|---|
| Flight time | 2h 46m |
| Altitude | 40000 |
| Route | BUDIN5B BUDIN DCT DIRED DCT SIPRO DCT GOTMO DCT GIKEB DCT SOTOV DCT IRBIR DCT ASPAT DCT MASEK DCT MAPOX/N0419F360 DCT HMM L602 RKN RKN3R |
| Aircraft | B738/M-SDE2E3FGIJ1RWXYZ/LB1 |
Departure
| Time | 2026-04-28 14:40 |
|---|---|
| Airport | Catania-Fontanarossa Airport (LICC) |
Arrival
| Time | 2026-04-28 17:27 |
|---|---|
| Airport | Rotterdam The Hague Airport (EHRD) |
| Time | Latitude | Longitude | Altitude | Speed | Heading |
|---|---|---|---|---|---|
| 2026-04-28 14:07 | 37.46945 | 15.06526 | 30 ft | 0 kts | 19° |
| 2026-04-28 14:32 | 37.46941 | 15.06524 | 30 ft | 3 kts | 19° |
| 2026-04-28 14:33 | 37.46916 | 15.06513 | 31 ft | 4 kts | 19° |
| 2026-04-28 14:33 | 37.46890 | 15.06502 | 31 ft | 4 kts | 18° |
| 2026-04-28 14:33 | 37.46871 | 15.06495 | 31 ft | 4 kts | 7° |
| 2026-04-28 14:33 | 37.46847 | 15.06498 | 31 ft | 4 kts | 321° |
| 2026-04-28 14:34 | 37.46835 | 15.06534 | 31 ft | 0 kts | 264° |
| 2026-04-28 14:36 | 37.46835 | 15.06530 | 31 ft | 2 kts | 264° |
| 2026-04-28 14:36 | 37.46830 | 15.06471 | 31 ft | 13 kts | 263° |
| 2026-04-28 14:36 | 37.46817 | 15.06328 | 31 ft | 18 kts | 263° |
| 2026-04-28 14:36 | 37.46803 | 15.06172 | 31 ft | 18 kts | 264° |
| 2026-04-28 14:37 | 37.46791 | 15.06021 | 29 ft | 17 kts | 264° |
| 2026-04-28 14:37 | 37.46780 | 15.05875 | 31 ft | 16 kts | 264° |
| 2026-04-28 14:37 | 37.46768 | 15.05735 | 31 ft | 16 kts | 264° |
| 2026-04-28 14:37 | 37.46757 | 15.05601 | 31 ft | 15 kts | 264° |
| 2026-04-28 14:38 | 37.46717 | 15.05488 | 31 ft | 15 kts | 211° |
| 2026-04-28 14:38 | 37.46625 | 15.05479 | 34 ft | 14 kts | 147° |
| 2026-04-28 14:38 | 37.46589 | 15.05561 | 33 ft | 6 kts | 92° |
| 2026-04-28 14:38 | 37.46590 | 15.05573 | 33 ft | 0 kts | 83° |
| 2026-04-28 14:39 | 37.46590 | 15.05578 | 33 ft | 1 kts | 83° |
| 2026-04-28 14:39 | 37.46591 | 15.05589 | 33 ft | 2 kts | 83° |
| 2026-04-28 14:39 | 37.46594 | 15.05622 | 33 ft | 10 kts | 83° |
| 2026-04-28 14:39 | 37.46628 | 15.06020 | 34 ft | 87 kts | 84° |
| 2026-04-28 14:40 | 37.46722 | 15.07082 | 93 ft | 149 kts | 81° |
| 2026-04-28 14:40 | 37.46769 | 15.07521 | 305 ft | 150 kts | 81° |
| 2026-04-28 14:40 | 37.46930 | 15.09294 | 1397 ft | 161 kts | 82° |
| 2026-04-28 14:40 | 37.47105 | 15.10754 | 2053 ft | 183 kts | 79° |
| 2026-04-28 14:41 | 37.47348 | 15.12493 | 2329 ft | 218 kts | 80° |
| 2026-04-28 14:41 | 37.47632 | 15.14492 | 2671 ft | 243 kts | 80° |
| 2026-04-28 14:41 | 37.47936 | 15.16638 | 3447 ft | 253 kts | 81° |
| 2026-04-28 14:41 | 37.48243 | 15.18827 | 4474 ft | 255 kts | 81° |
| 2026-04-28 14:42 | 37.48552 | 15.21045 | 5413 ft | 260 kts | 81° |
| 2026-04-28 14:42 | 37.48866 | 15.23314 | 6315 ft | 266 kts | 81° |
| 2026-04-28 14:42 | 37.49250 | 15.25624 | 7111 ft | 277 kts | 69° |
| 2026-04-28 14:42 | 37.50408 | 15.27572 | 7888 ft | 285 kts | 38° |
| 2026-04-28 14:43 | 37.52185 | 15.28679 | 8776 ft | 289 kts | 12° |
| 2026-04-28 14:43 | 37.54186 | 15.28724 | 9674 ft | 290 kts | 348° |
| 2026-04-28 14:43 | 37.56147 | 15.28100 | 10609 ft | 291 kts | 342° |
| 2026-04-28 14:43 | 37.58091 | 15.27349 | 11512 ft | 295 kts | 341° |
| 2026-04-28 14:44 | 37.60110 | 15.26534 | 11963 ft | 314 kts | 340° |
| 2026-04-28 14:44 | 37.62226 | 15.25678 | 12649 ft | 323 kts | 340° |
| 2026-04-28 14:44 | 37.64382 | 15.24814 | 13527 ft | 327 kts | 340° |
| 2026-04-28 14:44 | 37.66567 | 15.23946 | 14435 ft | 331 kts | 341° |
| 2026-04-28 14:45 | 37.68771 | 15.23078 | 15330 ft | 334 kts | 341° |
| 2026-04-28 14:45 | 37.71009 | 15.22201 | 16124 ft | 340 kts | 341° |
| 2026-04-28 14:45 | 37.73252 | 15.21325 | 16944 ft | 344 kts | 341° |
| 2026-04-28 14:45 | 37.75553 | 15.20428 | 17779 ft | 348 kts | 341° |
| 2026-04-28 14:46 | 37.77876 | 15.19525 | 18563 ft | 352 kts | 341° |
| 2026-04-28 14:46 | 37.80234 | 15.18609 | 19291 ft | 357 kts | 341° |
| 2026-04-28 14:46 | 37.82618 | 15.17683 | 20061 ft | 360 kts | 341° |
| 2026-04-28 14:46 | 37.85028 | 15.16746 | 20816 ft | 364 kts | 340° |
| 2026-04-28 14:47 | 37.87453 | 15.15804 | 21549 ft | 366 kts | 340° |
| 2026-04-28 14:47 | 37.89905 | 15.14850 | 22183 ft | 371 kts | 340° |
| 2026-04-28 14:47 | 37.92384 | 15.13884 | 22857 ft | 374 kts | 340° |
| 2026-04-28 14:47 | 37.94880 | 15.12912 | 23539 ft | 376 kts | 340° |
| 2026-04-28 14:48 | 37.97390 | 15.11934 | 24179 ft | 379 kts | 340° |
| 2026-04-28 14:48 | 37.99923 | 15.10946 | 24746 ft | 383 kts | 340° |
| 2026-04-28 14:48 | 38.02480 | 15.09946 | 25329 ft | 386 kts | 340° |
| 2026-04-28 14:48 | 38.05060 | 15.08937 | 25853 ft | 390 kts | 340° |
| 2026-04-28 14:49 | 38.07667 | 15.07917 | 26366 ft | 394 kts | 340° |
| 2026-04-28 14:49 | 38.10292 | 15.06890 | 26905 ft | 396 kts | 340° |
| 2026-04-28 14:49 | 38.12928 | 15.05859 | 27452 ft | 397 kts | 340° |
| 2026-04-28 14:49 | 38.15574 | 15.04823 | 27974 ft | 399 kts | 340° |
| 2026-04-28 14:50 | 38.18238 | 15.03777 | 28471 ft | 402 kts | 340° |
| 2026-04-28 14:50 | 38.20917 | 15.02725 | 28941 ft | 404 kts | 340° |
| 2026-04-28 14:50 | 38.23613 | 15.01665 | 29407 ft | 406 kts | 339° |
| 2026-04-28 14:50 | 38.26320 | 15.00600 | 29856 ft | 408 kts | 339° |
| 2026-04-28 14:51 | 38.29040 | 14.99530 | 30276 ft | 411 kts | 339° |
| 2026-04-28 14:51 | 38.31778 | 14.98452 | 30684 ft | 413 kts | 339° |
| 2026-04-28 14:51 | 38.34530 | 14.97367 | 31083 ft | 415 kts | 339° |
| 2026-04-28 14:51 | 38.37294 | 14.96277 | 31455 ft | 417 kts | 339° |
| 2026-04-28 14:52 | 38.40072 | 14.95180 | 31827 ft | 419 kts | 339° |
| 2026-04-28 14:52 | 38.42867 | 14.94076 | 32182 ft | 421 kts | 339° |
| 2026-04-28 14:52 | 38.45671 | 14.92966 | 32507 ft | 423 kts | 339° |
| 2026-04-28 14:52 | 38.48492 | 14.91850 | 32821 ft | 426 kts | 339° |
| 2026-04-28 14:53 | 38.51326 | 14.90727 | 33161 ft | 427 kts | 339° |
| 2026-04-28 14:53 | 38.54170 | 14.89600 | 33475 ft | 429 kts | 339° |
| 2026-04-28 14:53 | 38.57025 | 14.88468 | 33767 ft | 430 kts | 339° |
| 2026-04-28 14:53 | 38.59886 | 14.87333 | 34124 ft | 430 kts | 339° |
| 2026-04-28 14:54 | 38.62742 | 14.86200 | 34541 ft | 429 kts | 339° |
| 2026-04-28 14:54 | 38.65581 | 14.85072 | 34957 ft | 426 kts | 339° |
| 2026-04-28 14:54 | 38.68412 | 14.83946 | 35294 ft | 427 kts | 339° |
| 2026-04-28 14:54 | 38.71250 | 14.82815 | 35579 ft | 427 kts | 339° |
| 2026-04-28 14:55 | 38.74089 | 14.81684 | 35905 ft | 427 kts | 339° |
| 2026-04-28 14:55 | 38.76920 | 14.80555 | 36278 ft | 425 kts | 339° |
| 2026-04-28 14:55 | 38.79706 | 14.79443 | 36565 ft | 426 kts | 338° |
| 2026-04-28 14:55 | 38.82533 | 14.78313 | 36882 ft | 425 kts | 338° |
| 2026-04-28 14:56 | 38.85333 | 14.77194 | 37425 ft | 418 kts | 338° |
| 2026-04-28 14:56 | 38.88087 | 14.76095 | 37901 ft | 413 kts | 338° |
| 2026-04-28 14:56 | 38.90837 | 14.74993 | 38097 ft | 415 kts | 338° |
| 2026-04-28 14:56 | 38.93603 | 14.73881 | 38219 ft | 418 kts | 338° |
| 2026-04-28 14:57 | 38.96379 | 14.72765 | 38459 ft | 418 kts | 338° |
| 2026-04-28 14:57 | 38.98255 | 14.72011 | 38642 ft | 418 kts | 338° |
| 2026-04-28 14:57 | 39.01927 | 14.70534 | 38947 ft | 418 kts | 338° |
| 2026-04-28 14:57 | 39.04701 | 14.69417 | 39191 ft | 418 kts | 338° |
| 2026-04-28 14:58 | 39.07478 | 14.68300 | 39396 ft | 418 kts | 338° |
| 2026-04-28 14:58 | 39.10259 | 14.67179 | 39566 ft | 420 kts | 338° |
| 2026-04-28 14:58 | 39.13049 | 14.66053 | 39764 ft | 420 kts | 338° |
| 2026-04-28 14:58 | 39.15840 | 14.64926 | 39964 ft | 421 kts | 338° |
| 2026-04-28 14:59 | 39.18639 | 14.63794 | 40037 ft | 424 kts | 338° |
| 2026-04-28 14:59 | 39.24299 | 14.61503 | 40048 ft | 427 kts | 338° |
| 2026-04-28 15:00 | 39.29953 | 14.59215 | 40044 ft | 425 kts | 338° |
| 2026-04-28 15:00 | 39.35578 | 14.56935 | 40045 ft | 423 kts | 338° |
| 2026-04-28 15:01 | 39.41181 | 14.54657 | 40044 ft | 422 kts | 338° |
| 2026-04-28 15:01 | 39.46771 | 14.52381 | 40047 ft | 421 kts | 338° |
| 2026-04-28 15:02 | 39.52355 | 14.50102 | 40049 ft | 421 kts | 338° |
| 2026-04-28 15:02 | 39.57943 | 14.47818 | 40050 ft | 421 kts | 338° |
| 2026-04-28 15:03 | 39.63544 | 14.45525 | 40051 ft | 423 kts | 338° |
| 2026-04-28 15:03 | 39.69164 | 14.43221 | 40050 ft | 424 kts | 338° |
| 2026-04-28 15:04 | 39.74802 | 14.40905 | 40061 ft | 426 kts | 338° |
| 2026-04-28 15:04 | 39.80458 | 14.38578 | 40065 ft | 427 kts | 338° |
| 2026-04-28 15:05 | 39.86132 | 14.36240 | 40065 ft | 428 kts | 339° |
| 2026-04-28 15:05 | 39.91821 | 14.33891 | 40067 ft | 429 kts | 339° |
| 2026-04-28 15:06 | 39.97482 | 14.31551 | 40067 ft | 430 kts | 339° |
| 2026-04-28 15:06 | 40.03188 | 14.29187 | 40069 ft | 430 kts | 339° |
| 2026-04-28 15:07 | 40.08892 | 14.26820 | 40072 ft | 430 kts | 339° |
| 2026-04-28 15:07 | 40.14592 | 14.24451 | 40063 ft | 430 kts | 339° |
| 2026-04-28 15:08 | 40.20285 | 14.22080 | 40065 ft | 429 kts | 339° |
| 2026-04-28 15:08 | 40.25969 | 14.19709 | 40062 ft | 428 kts | 339° |
| 2026-04-28 15:09 | 40.31642 | 14.17338 | 40064 ft | 428 kts | 339° |
| 2026-04-28 15:09 | 40.37307 | 14.14966 | 40064 ft | 427 kts | 339° |
| 2026-04-28 15:10 | 40.42959 | 14.12596 | 40064 ft | 426 kts | 339° |
| 2026-04-28 15:10 | 40.48606 | 14.10223 | 40062 ft | 426 kts | 339° |
| 2026-04-28 15:11 | 40.54244 | 14.07850 | 40067 ft | 425 kts | 339° |
| 2026-04-28 15:11 | 40.59877 | 14.05475 | 40064 ft | 425 kts | 339° |
| 2026-04-28 15:12 | 40.65505 | 14.03097 | 40059 ft | 425 kts | 339° |
| 2026-04-28 15:12 | 40.71133 | 14.00716 | 40046 ft | 425 kts | 339° |
| 2026-04-28 15:13 | 40.76754 | 13.98334 | 40066 ft | 424 kts | 338° |
| 2026-04-28 15:13 | 40.82368 | 13.95949 | 40079 ft | 424 kts | 338° |
| 2026-04-28 15:14 | 40.87978 | 13.93563 | 40077 ft | 423 kts | 338° |
| 2026-04-28 15:14 | 40.93548 | 13.91189 | 40064 ft | 423 kts | 338° |
| 2026-04-28 15:15 | 40.99153 | 13.88796 | 40077 ft | 423 kts | 338° |
| 2026-04-28 15:15 | 41.04755 | 13.86400 | 40078 ft | 423 kts | 338° |
| 2026-04-28 15:16 | 41.10356 | 13.84001 | 40065 ft | 423 kts | 338° |
| 2026-04-28 15:16 | 41.15951 | 13.81599 | 40071 ft | 423 kts | 338° |
| 2026-04-28 15:17 | 41.21545 | 13.79194 | 40079 ft | 422 kts | 338° |
| 2026-04-28 15:17 | 41.27135 | 13.76785 | 40069 ft | 422 kts | 338° |
| 2026-04-28 15:18 | 41.32727 | 13.74372 | 40065 ft | 422 kts | 338° |
| 2026-04-28 15:18 | 41.38314 | 13.71957 | 40066 ft | 422 kts | 338° |
| 2026-04-28 15:19 | 41.43898 | 13.69538 | 40057 ft | 422 kts | 338° |
| 2026-04-28 15:19 | 41.49480 | 13.67117 | 40049 ft | 422 kts | 338° |
| 2026-04-28 15:20 | 41.55057 | 13.64692 | 40055 ft | 421 kts | 338° |
| 2026-04-28 15:20 | 41.60629 | 13.62266 | 40046 ft | 421 kts | 338° |
| 2026-04-28 15:21 | 41.66203 | 13.59834 | 40055 ft | 421 kts | 338° |
| 2026-04-28 15:21 | 41.71777 | 13.57398 | 40050 ft | 421 kts | 338° |
| 2026-04-28 15:22 | 41.77343 | 13.54961 | 40061 ft | 421 kts | 338° |
| 2026-04-28 15:22 | 41.82904 | 13.52522 | 40051 ft | 421 kts | 338° |
| 2026-04-28 15:23 | 41.88425 | 13.50095 | 40062 ft | 420 kts | 338° |
| 2026-04-28 15:23 | 41.93984 | 13.47648 | 40050 ft | 420 kts | 338° |
| 2026-04-28 15:24 | 41.99536 | 13.45199 | 40050 ft | 419 kts | 338° |
| 2026-04-28 15:24 | 42.05077 | 13.42751 | 40056 ft | 419 kts | 338° |
| 2026-04-28 15:25 | 42.10618 | 13.40298 | 40053 ft | 419 kts | 338° |
| 2026-04-28 15:25 | 42.16160 | 13.37839 | 40040 ft | 419 kts | 338° |
| 2026-04-28 15:26 | 42.21700 | 13.35378 | 40053 ft | 419 kts | 338° |
| 2026-04-28 15:26 | 42.27243 | 13.32910 | 40050 ft | 420 kts | 338° |
| 2026-04-28 15:27 | 42.32793 | 13.30435 | 40046 ft | 420 kts | 338° |
| 2026-04-28 15:27 | 42.38335 | 13.27959 | 40046 ft | 419 kts | 338° |
| 2026-04-28 15:28 | 42.43872 | 13.25481 | 40045 ft | 419 kts | 338° |
| 2026-04-28 15:28 | 42.48468 | 13.23420 | 40045 ft | 418 kts | 338° |
| 2026-04-28 15:29 | 42.53993 | 13.20938 | 40043 ft | 418 kts | 338° |
| 2026-04-28 15:29 | 42.59514 | 13.18453 | 40040 ft | 418 kts | 338° |
| 2026-04-28 15:30 | 42.65042 | 13.15961 | 40042 ft | 419 kts | 338° |
| 2026-04-28 15:30 | 42.70568 | 13.13465 | 40029 ft | 418 kts | 338° |
| 2026-04-28 15:31 | 42.76093 | 13.10964 | 40028 ft | 419 kts | 338° |
| 2026-04-28 15:31 | 42.81620 | 13.08458 | 40026 ft | 419 kts | 338° |
| 2026-04-28 15:32 | 42.87147 | 13.05947 | 40022 ft | 418 kts | 338° |
| 2026-04-28 15:32 | 42.92667 | 13.03435 | 40019 ft | 418 kts | 338° |
| 2026-04-28 15:33 | 42.98185 | 13.00919 | 40026 ft | 418 kts | 338° |
| 2026-04-28 15:33 | 43.03702 | 12.98398 | 40015 ft | 418 kts | 338° |
| 2026-04-28 15:34 | 43.09175 | 12.95893 | 40005 ft | 418 kts | 338° |
| 2026-04-28 15:34 | 43.14683 | 12.93366 | 40000 ft | 417 kts | 338° |
| 2026-04-28 15:35 | 43.20185 | 12.90839 | 40002 ft | 417 kts | 338° |
| 2026-04-28 15:35 | 43.28509 | 12.87325 | 40006 ft | 418 kts | 340° |
| 2026-04-28 15:36 | 43.34082 | 12.85081 | 40011 ft | 417 kts | 340° |
| 2026-04-28 15:36 | 43.39648 | 12.82815 | 40007 ft | 417 kts | 340° |
| 2026-04-28 15:37 | 43.45200 | 12.80533 | 40009 ft | 416 kts | 340° |
| 2026-04-28 15:37 | 43.50749 | 12.78240 | 40016 ft | 416 kts | 340° |
| 2026-04-28 15:38 | 43.56293 | 12.75944 | 40019 ft | 416 kts | 340° |
| 2026-04-28 15:38 | 43.61841 | 12.73642 | 40020 ft | 416 kts | 339° |
| 2026-04-28 15:39 | 43.67391 | 12.71335 | 40014 ft | 417 kts | 339° |
| 2026-04-28 15:39 | 43.72939 | 12.69025 | 40023 ft | 416 kts | 340° |
| 2026-04-28 15:40 | 43.78488 | 12.66710 | 40016 ft | 417 kts | 339° |
| 2026-04-28 15:40 | 43.84002 | 12.64405 | 40015 ft | 417 kts | 339° |
| 2026-04-28 15:41 | 43.89548 | 12.62082 | 40018 ft | 416 kts | 339° |
| 2026-04-28 15:41 | 43.95093 | 12.59755 | 40019 ft | 416 kts | 339° |
| 2026-04-28 15:42 | 44.00632 | 12.57426 | 40019 ft | 416 kts | 339° |
| 2026-04-28 15:42 | 44.06165 | 12.55095 | 40016 ft | 416 kts | 339° |
| 2026-04-28 15:43 | 44.11698 | 12.52760 | 40018 ft | 415 kts | 339° |
| 2026-04-28 15:43 | 44.17223 | 12.50423 | 40018 ft | 415 kts | 339° |
| 2026-04-28 15:44 | 44.22742 | 12.48084 | 40019 ft | 415 kts | 339° |
| 2026-04-28 15:44 | 44.28258 | 12.45742 | 40018 ft | 414 kts | 339° |
| 2026-04-28 15:45 | 44.33777 | 12.43394 | 40020 ft | 414 kts | 339° |
| 2026-04-28 15:45 | 44.39292 | 12.41043 | 40018 ft | 414 kts | 339° |
| 2026-04-28 15:46 | 44.44803 | 12.38689 | 40018 ft | 414 kts | 339° |
| 2026-04-28 15:46 | 44.50317 | 12.36329 | 40019 ft | 414 kts | 339° |
| 2026-04-28 15:47 | 44.55830 | 12.33965 | 40018 ft | 414 kts | 339° |
| 2026-04-28 15:47 | 44.61340 | 12.31597 | 40019 ft | 414 kts | 339° |
| 2026-04-28 15:48 | 44.66853 | 12.29224 | 40017 ft | 414 kts | 339° |
| 2026-04-28 15:48 | 44.72363 | 12.26847 | 40020 ft | 414 kts | 339° |
| 2026-04-28 15:49 | 44.77872 | 12.24465 | 40018 ft | 414 kts | 339° |
| 2026-04-28 15:49 | 44.83382 | 12.22079 | 40017 ft | 414 kts | 339° |
| 2026-04-28 15:50 | 44.88892 | 12.19688 | 40018 ft | 414 kts | 339° |
| 2026-04-28 15:50 | 44.94397 | 12.17294 | 40021 ft | 414 kts | 339° |
| 2026-04-28 15:51 | 44.99905 | 12.14894 | 40017 ft | 414 kts | 339° |
| 2026-04-28 15:51 | 45.05369 | 12.12508 | 40018 ft | 414 kts | 339° |
| 2026-04-28 15:52 | 45.10872 | 12.10101 | 40018 ft | 414 kts | 339° |
| 2026-04-28 15:52 | 45.16371 | 12.07691 | 40020 ft | 414 kts | 338° |
| 2026-04-28 15:53 | 45.21866 | 12.05277 | 40020 ft | 413 kts | 338° |
| 2026-04-28 15:53 | 45.27363 | 12.02857 | 40018 ft | 413 kts | 338° |
| 2026-04-28 15:54 | 45.32854 | 12.00436 | 40020 ft | 413 kts | 338° |
| 2026-04-28 15:54 | 45.38343 | 11.98010 | 40020 ft | 413 kts | 338° |
| 2026-04-28 15:55 | 45.43823 | 11.95583 | 40029 ft | 413 kts | 338° |
| 2026-04-28 15:55 | 45.49303 | 11.93151 | 40028 ft | 413 kts | 338° |
| 2026-04-28 15:56 | 45.54782 | 11.90715 | 40035 ft | 412 kts | 338° |
| 2026-04-28 15:56 | 45.60256 | 11.88276 | 40034 ft | 412 kts | 338° |
| 2026-04-28 15:57 | 45.65733 | 11.85831 | 40042 ft | 412 kts | 338° |
| 2026-04-28 15:57 | 45.71209 | 11.83381 | 40041 ft | 412 kts | 338° |
| 2026-04-28 15:58 | 45.76684 | 11.80926 | 40054 ft | 412 kts | 338° |
| 2026-04-28 15:58 | 45.82162 | 11.78465 | 40066 ft | 412 kts | 338° |
| 2026-04-28 15:59 | 45.86712 | 11.76418 | 40080 ft | 412 kts | 338° |
| 2026-04-28 15:59 | 45.93119 | 11.73527 | 40093 ft | 413 kts | 338° |
| 2026-04-28 16:00 | 45.98571 | 11.71063 | 40097 ft | 414 kts | 338° |
| 2026-04-28 16:00 | 46.04063 | 11.68575 | 40115 ft | 414 kts | 338° |
| 2026-04-28 16:01 | 46.09549 | 11.66085 | 40129 ft | 413 kts | 338° |
| 2026-04-28 16:01 | 46.15028 | 11.63593 | 40143 ft | 413 kts | 338° |
| 2026-04-28 16:02 | 46.20500 | 11.61042 | 40156 ft | 412 kts | 336° |
| 2026-04-28 16:02 | 46.25879 | 11.58177 | 40158 ft | 412 kts | 335° |
| 2026-04-28 16:03 | 46.31247 | 11.55249 | 40151 ft | 413 kts | 335° |
| 2026-04-28 16:03 | 46.36635 | 11.52341 | 40141 ft | 413 kts | 335° |
| 2026-04-28 16:04 | 46.42036 | 11.49445 | 40116 ft | 414 kts | 335° |
| 2026-04-28 16:04 | 46.47446 | 11.46544 | 40089 ft | 415 kts | 335° |
| 2026-04-28 16:05 | 46.52858 | 11.43637 | 40056 ft | 414 kts | 335° |
| 2026-04-28 16:05 | 46.58256 | 11.40730 | 40067 ft | 413 kts | 335° |
| 2026-04-28 16:06 | 46.63647 | 11.37821 | 40064 ft | 413 kts | 335° |
| 2026-04-28 16:06 | 46.69027 | 11.34910 | 40060 ft | 412 kts | 335° |
| 2026-04-28 16:07 | 46.74392 | 11.32002 | 40075 ft | 411 kts | 335° |
| 2026-04-28 16:08 | 46.82432 | 11.27632 | 40069 ft | 412 kts | 335° |
| 2026-04-28 16:08 | 46.87798 | 11.24708 | 40050 ft | 411 kts | 335° |
| 2026-04-28 16:09 | 46.95944 | 11.20737 | 40033 ft | 417 kts | 346° |
| 2026-04-28 16:10 | 47.04622 | 11.19299 | 40036 ft | 419 kts | 348° |
| 2026-04-28 16:10 | 47.13313 | 11.17871 | 40034 ft | 419 kts | 348° |
| 2026-04-28 16:11 | 47.24922 | 11.15882 | 40033 ft | 420 kts | 348° |
| 2026-04-28 16:12 | 47.33637 | 11.14380 | 40029 ft | 421 kts | 348° |
| 2026-04-28 16:13 | 47.42395 | 11.12866 | 40037 ft | 423 kts | 347° |
| 2026-04-28 16:14 | 47.54075 | 11.10839 | 40043 ft | 425 kts | 348° |
| 2026-04-28 16:15 | 47.65764 | 11.08411 | 40056 ft | 423 kts | 345° |
| 2026-04-28 16:15 | 47.71571 | 11.07056 | 40064 ft | 422 kts | 345° |
| 2026-04-28 16:16 | 47.80260 | 11.05066 | 40067 ft | 421 kts | 346° |
| 2026-04-28 16:17 | 47.87950 | 11.03320 | 40079 ft | 419 kts | 346° |
| 2026-04-28 16:17 | 47.93717 | 11.02008 | 40078 ft | 419 kts | 346° |
| 2026-04-28 16:18 | 47.99480 | 11.00693 | 40077 ft | 419 kts | 345° |
| 2026-04-28 16:18 | 48.05250 | 10.99373 | 40070 ft | 419 kts | 346° |
| 2026-04-28 16:19 | 48.11022 | 10.98051 | 40079 ft | 420 kts | 346° |
| 2026-04-28 16:19 | 48.16807 | 10.96723 | 40072 ft | 421 kts | 346° |
| 2026-04-28 16:20 | 48.22606 | 10.95388 | 40084 ft | 422 kts | 346° |
| 2026-04-28 16:20 | 48.28415 | 10.94054 | 40074 ft | 423 kts | 346° |
| 2026-04-28 16:21 | 48.34232 | 10.92705 | 40077 ft | 423 kts | 346° |
| 2026-04-28 16:21 | 48.40065 | 10.91349 | 40081 ft | 425 kts | 346° |
| 2026-04-28 16:22 | 48.45915 | 10.89996 | 40074 ft | 425 kts | 346° |
| 2026-04-28 16:22 | 48.51770 | 10.88638 | 40083 ft | 426 kts | 346° |
| 2026-04-28 16:23 | 48.57629 | 10.87266 | 40068 ft | 426 kts | 346° |
| 2026-04-28 16:23 | 48.63479 | 10.85895 | 40059 ft | 425 kts | 346° |
| 2026-04-28 16:24 | 48.69320 | 10.84525 | 40081 ft | 424 kts | 346° |
| 2026-04-28 16:24 | 48.75111 | 10.83164 | 40083 ft | 424 kts | 346° |
| 2026-04-28 16:25 | 48.80931 | 10.81793 | 40089 ft | 423 kts | 346° |
| 2026-04-28 16:25 | 48.86744 | 10.80421 | 40090 ft | 423 kts | 346° |
| 2026-04-28 16:26 | 48.92552 | 10.79046 | 40094 ft | 422 kts | 346° |
| 2026-04-28 16:26 | 48.98355 | 10.77669 | 40096 ft | 422 kts | 346° |
| 2026-04-28 16:27 | 49.04152 | 10.76290 | 40102 ft | 422 kts | 346° |
| 2026-04-28 16:28 | 49.12852 | 10.74215 | 40108 ft | 422 kts | 347° |
| 2026-04-28 16:28 | 49.18639 | 10.72757 | 40114 ft | 420 kts | 342° |
| 2026-04-28 16:29 | 49.26629 | 10.67719 | 40115 ft | 414 kts | 331° |
| 2026-04-28 16:30 | 49.34446 | 10.62044 | 40119 ft | 415 kts | 331° |
| 2026-04-28 16:30 | 49.39677 | 10.58279 | 40121 ft | 416 kts | 332° |
| 2026-04-28 16:31 | 49.44926 | 10.54509 | 40116 ft | 417 kts | 332° |
| 2026-04-28 16:31 | 49.50186 | 10.50727 | 40109 ft | 418 kts | 332° |
| 2026-04-28 16:32 | 49.55454 | 10.46929 | 40104 ft | 419 kts | 332° |
| 2026-04-28 16:32 | 49.63366 | 10.41207 | 40101 ft | 419 kts | 332° |
| 2026-04-28 16:33 | 49.67754 | 10.38025 | 40108 ft | 419 kts | 332° |
| 2026-04-28 16:33 | 49.73884 | 10.33569 | 40108 ft | 419 kts | 332° |
| 2026-04-28 16:34 | 49.79193 | 10.29699 | 40111 ft | 419 kts | 332° |
| 2026-04-28 16:34 | 49.84430 | 10.25874 | 40111 ft | 419 kts | 332° |
| 2026-04-28 16:35 | 49.89698 | 10.22015 | 40114 ft | 419 kts | 332° |
| 2026-04-28 16:35 | 49.94964 | 10.18148 | 40122 ft | 419 kts | 332° |
| 2026-04-28 16:36 | 50.00228 | 10.14275 | 40121 ft | 418 kts | 332° |
| 2026-04-28 16:36 | 50.05484 | 10.10397 | 40129 ft | 418 kts | 332° |
| 2026-04-28 16:37 | 50.10736 | 10.06513 | 40136 ft | 418 kts | 332° |
| 2026-04-28 16:38 | 50.18611 | 10.00670 | 40145 ft | 418 kts | 332° |
| 2026-04-28 16:38 | 50.23858 | 9.96766 | 40147 ft | 418 kts | 332° |
| 2026-04-28 16:39 | 50.29109 | 9.92849 | 40157 ft | 418 kts | 332° |
| 2026-04-28 16:39 | 50.34354 | 9.88927 | 40174 ft | 418 kts | 332° |
| 2026-04-28 16:40 | 50.39604 | 9.84991 | 40172 ft | 418 kts | 332° |
| 2026-04-28 16:40 | 50.44857 | 9.81044 | 40189 ft | 419 kts | 332° |
| 2026-04-28 16:41 | 50.50080 | 9.77109 | 40181 ft | 419 kts | 332° |
| 2026-04-28 16:41 | 50.55343 | 9.73134 | 40187 ft | 420 kts | 332° |
| 2026-04-28 16:42 | 50.60612 | 9.69144 | 40182 ft | 420 kts | 332° |
| 2026-04-28 16:42 | 50.65880 | 9.65146 | 40197 ft | 420 kts | 332° |
| 2026-04-28 16:43 | 50.71097 | 9.60992 | 40188 ft | 419 kts | 325° |
| 2026-04-28 16:43 | 50.75499 | 9.55050 | 40191 ft | 417 kts | 309° |
| 2026-04-28 16:44 | 50.79173 | 9.47973 | 40201 ft | 417 kts | 308° |
| 2026-04-28 16:44 | 50.82825 | 9.40854 | 40204 ft | 417 kts | 309° |
| 2026-04-28 16:45 | 50.86501 | 9.33741 | 40208 ft | 418 kts | 309° |
| 2026-04-28 16:45 | 50.90187 | 9.26625 | 40212 ft | 418 kts | 309° |
| 2026-04-28 16:46 | 50.93879 | 9.19488 | 40212 ft | 419 kts | 309° |
| 2026-04-28 16:46 | 50.97568 | 9.12334 | 40213 ft | 419 kts | 309° |
| 2026-04-28 16:47 | 51.01259 | 9.05158 | 40211 ft | 420 kts | 309° |
| 2026-04-28 16:47 | 51.04953 | 8.97953 | 40214 ft | 421 kts | 309° |
| 2026-04-28 16:48 | 51.08644 | 8.90734 | 40214 ft | 421 kts | 309° |
| 2026-04-28 16:48 | 51.12311 | 8.83544 | 40212 ft | 421 kts | 309° |
| 2026-04-28 16:49 | 51.16315 | 8.76754 | 40225 ft | 421 kts | 316° |
| 2026-04-28 16:49 | 51.20620 | 8.70415 | 40218 ft | 421 kts | 317° |
| 2026-04-28 16:50 | 51.24879 | 8.63991 | 40215 ft | 421 kts | 311° |
| 2026-04-28 16:50 | 51.28514 | 8.56669 | 40222 ft | 421 kts | 307° |
| 2026-04-28 16:51 | 51.32058 | 8.49201 | 40220 ft | 422 kts | 308° |
| 2026-04-28 16:51 | 51.35626 | 8.41749 | 40223 ft | 422 kts | 308° |
| 2026-04-28 16:52 | 51.39216 | 8.34306 | 40220 ft | 423 kts | 308° |
| 2026-04-28 16:52 | 51.41020 | 8.30572 | 39957 ft | 427 kts | 308° |
| 2026-04-28 16:52 | 51.42841 | 8.26800 | 39469 ft | 427 kts | 308° |
| 2026-04-28 16:52 | 51.44653 | 8.23044 | 38899 ft | 425 kts | 308° |
| 2026-04-28 16:53 | 51.46458 | 8.19296 | 38307 ft | 424 kts | 308° |
| 2026-04-28 16:53 | 51.48254 | 8.15559 | 37707 ft | 423 kts | 308° |
| 2026-04-28 16:53 | 51.50045 | 8.11826 | 37103 ft | 421 kts | 308° |
| 2026-04-28 16:53 | 51.51828 | 8.08103 | 36481 ft | 420 kts | 308° |
| 2026-04-28 16:54 | 51.53605 | 8.04391 | 35936 ft | 417 kts | 308° |
| 2026-04-28 16:54 | 51.55364 | 8.00709 | 35457 ft | 414 kts | 308° |
| 2026-04-28 16:54 | 51.57107 | 7.97055 | 34986 ft | 410 kts | 307° |
| 2026-04-28 16:54 | 51.58253 | 7.94650 | 34686 ft | 408 kts | 307° |
| 2026-04-28 16:55 | 51.60546 | 7.89828 | 34075 ft | 403 kts | 307° |
| 2026-04-28 16:55 | 51.62239 | 7.86263 | 33629 ft | 400 kts | 307° |
| 2026-04-28 16:55 | 51.63919 | 7.82722 | 33180 ft | 396 kts | 307° |
| 2026-04-28 16:55 | 51.65583 | 7.79214 | 32739 ft | 393 kts | 307° |
| 2026-04-28 16:56 | 51.67232 | 7.75730 | 32303 ft | 390 kts | 307° |
| 2026-04-28 16:56 | 51.68868 | 7.72269 | 31869 ft | 387 kts | 307° |
| 2026-04-28 16:56 | 51.70489 | 7.68831 | 31448 ft | 384 kts | 307° |
| 2026-04-28 16:56 | 51.72094 | 7.65424 | 31023 ft | 380 kts | 307° |
| 2026-04-28 16:57 | 51.73688 | 7.62036 | 30604 ft | 377 kts | 307° |
| 2026-04-28 16:57 | 51.75268 | 7.58675 | 30197 ft | 374 kts | 307° |
| 2026-04-28 16:57 | 51.76834 | 7.55340 | 29784 ft | 371 kts | 307° |
| 2026-04-28 16:57 | 51.78388 | 7.52027 | 29360 ft | 369 kts | 307° |
| 2026-04-28 16:58 | 51.79927 | 7.48742 | 28938 ft | 365 kts | 307° |
| 2026-04-28 16:58 | 51.81453 | 7.45478 | 28509 ft | 363 kts | 307° |
| 2026-04-28 16:58 | 51.82967 | 7.42236 | 28123 ft | 359 kts | 307° |
| 2026-04-28 16:58 | 51.84460 | 7.39029 | 27793 ft | 355 kts | 306° |
| 2026-04-28 16:59 | 51.85591 | 7.35510 | 27487 ft | 356 kts | 287° |
| 2026-04-28 16:59 | 51.86053 | 7.31518 | 27272 ft | 367 kts | 274° |
| 2026-04-28 16:59 | 51.86060 | 7.27412 | 27049 ft | 372 kts | 269° |
| 2026-04-28 16:59 | 51.85950 | 7.23221 | 26802 ft | 372 kts | 268° |
| 2026-04-28 17:00 | 51.85808 | 7.19066 | 26541 ft | 369 kts | 268° |
| 2026-04-28 17:00 | 51.85663 | 7.14932 | 26288 ft | 367 kts | 268° |
| 2026-04-28 17:00 | 51.85524 | 7.10809 | 26039 ft | 367 kts | 268° |
| 2026-04-28 17:00 | 51.85393 | 7.06698 | 25788 ft | 366 kts | 268° |
| 2026-04-28 17:01 | 51.85266 | 7.02590 | 25539 ft | 365 kts | 268° |
| 2026-04-28 17:01 | 51.85143 | 6.98491 | 25289 ft | 365 kts | 268° |
| 2026-04-28 17:01 | 51.85022 | 6.94395 | 25040 ft | 364 kts | 268° |
| 2026-04-28 17:01 | 51.84902 | 6.90304 | 24790 ft | 364 kts | 268° |
| 2026-04-28 17:02 | 51.84781 | 6.86221 | 24541 ft | 363 kts | 268° |
| 2026-04-28 17:02 | 51.84700 | 6.83470 | 24372 ft | 363 kts | 268° |
| 2026-04-28 17:02 | 51.84539 | 6.78113 | 24251 ft | 360 kts | 268° |
| 2026-04-28 17:02 | 51.84416 | 6.74058 | 24222 ft | 360 kts | 268° |
| 2026-04-28 17:03 | 51.84167 | 6.65996 | 24223 ft | 359 kts | 268° |
| 2026-04-28 17:03 | 51.84040 | 6.61957 | 24225 ft | 360 kts | 268° |
| 2026-04-28 17:03 | 51.83912 | 6.57915 | 24219 ft | 361 kts | 268° |
| 2026-04-28 17:04 | 51.83650 | 6.49805 | 24220 ft | 362 kts | 268° |
| 2026-04-28 17:04 | 51.83517 | 6.45739 | 24213 ft | 362 kts | 268° |
| 2026-04-28 17:05 | 51.83247 | 6.37600 | 24018 ft | 363 kts | 268° |
| 2026-04-28 17:05 | 51.83156 | 6.34912 | 23848 ft | 360 kts | 268° |
| 2026-04-28 17:05 | 51.83020 | 6.30894 | 23598 ft | 357 kts | 268° |
| 2026-04-28 17:06 | 51.82744 | 6.22923 | 23043 ft | 353 kts | 268° |
| 2026-04-28 17:06 | 51.82606 | 6.18993 | 22670 ft | 349 kts | 268° |
| 2026-04-28 17:06 | 51.82330 | 6.11238 | 21870 ft | 343 kts | 267° |
| 2026-04-28 17:07 | 51.82191 | 6.07402 | 21481 ft | 340 kts | 267° |
| 2026-04-28 17:07 | 51.82053 | 6.03598 | 21094 ft | 338 kts | 267° |
| 2026-04-28 17:07 | 51.81915 | 5.99828 | 20712 ft | 335 kts | 267° |
| 2026-04-28 17:07 | 51.81776 | 5.96082 | 20331 ft | 333 kts | 267° |
| 2026-04-28 17:08 | 51.81637 | 5.92362 | 19954 ft | 331 kts | 267° |
| 2026-04-28 17:08 | 51.81499 | 5.88664 | 19572 ft | 329 kts | 267° |
| 2026-04-28 17:08 | 51.81359 | 5.84993 | 19197 ft | 326 kts | 267° |
| 2026-04-28 17:08 | 51.81220 | 5.81340 | 18826 ft | 324 kts | 267° |
| 2026-04-28 17:09 | 51.81080 | 5.77713 | 18450 ft | 323 kts | 267° |
| 2026-04-28 17:09 | 51.80939 | 5.74107 | 18076 ft | 321 kts | 267° |
| 2026-04-28 17:09 | 51.80798 | 5.70517 | 17706 ft | 319 kts | 267° |
| 2026-04-28 17:09 | 51.80658 | 5.66951 | 17337 ft | 317 kts | 267° |
| 2026-04-28 17:10 | 51.80518 | 5.63403 | 16967 ft | 316 kts | 267° |
| 2026-04-28 17:10 | 51.80376 | 5.59876 | 16592 ft | 314 kts | 266° |
| 2026-04-28 17:10 | 51.80234 | 5.56370 | 16229 ft | 312 kts | 266° |
| 2026-04-28 17:10 | 51.80091 | 5.52876 | 15862 ft | 311 kts | 266° |
| 2026-04-28 17:11 | 51.79948 | 5.49397 | 15499 ft | 310 kts | 266° |
| 2026-04-28 17:11 | 51.79804 | 5.45936 | 15129 ft | 308 kts | 266° |
| 2026-04-28 17:11 | 51.79661 | 5.42489 | 14767 ft | 307 kts | 266° |
| 2026-04-28 17:11 | 51.79517 | 5.39061 | 14414 ft | 305 kts | 266° |
| 2026-04-28 17:12 | 51.79373 | 5.35648 | 14056 ft | 304 kts | 266° |
| 2026-04-28 17:12 | 51.79229 | 5.32247 | 13694 ft | 303 kts | 266° |
| 2026-04-28 17:12 | 51.79084 | 5.28861 | 13334 ft | 301 kts | 266° |
| 2026-04-28 17:12 | 51.78938 | 5.25497 | 12979 ft | 300 kts | 266° |
| 2026-04-28 17:13 | 51.78793 | 5.22145 | 12634 ft | 298 kts | 266° |
| 2026-04-28 17:13 | 51.78648 | 5.18816 | 12273 ft | 297 kts | 265° |
| 2026-04-28 17:13 | 51.78501 | 5.15496 | 11916 ft | 296 kts | 265° |
| 2026-04-28 17:13 | 51.78355 | 5.12182 | 11569 ft | 295 kts | 265° |
| 2026-04-28 17:14 | 51.78208 | 5.08882 | 11216 ft | 294 kts | 265° |
| 2026-04-28 17:14 | 51.78062 | 5.05592 | 10862 ft | 293 kts | 266° |
| 2026-04-28 17:14 | 51.77915 | 5.02310 | 10516 ft | 293 kts | 265° |
| 2026-04-28 17:14 | 51.77768 | 4.99041 | 10269 ft | 288 kts | 265° |
| 2026-04-28 17:15 | 51.77624 | 4.95878 | 10026 ft | 288 kts | 265° |
| 2026-04-28 17:15 | 51.77477 | 4.92606 | 9692 ft | 296 kts | 266° |
| 2026-04-28 17:15 | 51.77321 | 4.89252 | 9350 ft | 301 kts | 265° |
| 2026-04-28 17:15 | 51.77164 | 4.85891 | 8998 ft | 300 kts | 265° |
| 2026-04-28 17:16 | 51.77007 | 4.82542 | 8648 ft | 299 kts | 265° |
| 2026-04-28 17:16 | 51.76849 | 4.79204 | 8301 ft | 297 kts | 266° |
| 2026-04-28 17:16 | 51.76690 | 4.75879 | 7867 ft | 299 kts | 265° |
| 2026-04-28 17:16 | 51.76530 | 4.72519 | 7422 ft | 301 kts | 265° |
| 2026-04-28 17:17 | 51.76368 | 4.69148 | 7065 ft | 301 kts | 266° |
| 2026-04-28 17:17 | 51.76207 | 4.65784 | 6709 ft | 300 kts | 266° |
| 2026-04-28 17:17 | 51.76046 | 4.62440 | 6350 ft | 299 kts | 266° |
| 2026-04-28 17:17 | 51.75880 | 4.59099 | 6002 ft | 298 kts | 266° |
| 2026-04-28 17:18 | 51.75718 | 4.55775 | 5650 ft | 296 kts | 266° |
| 2026-04-28 17:18 | 51.75557 | 4.52449 | 5196 ft | 299 kts | 266° |
| 2026-04-28 17:18 | 51.75392 | 4.49113 | 4723 ft | 296 kts | 266° |
| 2026-04-28 17:18 | 51.75226 | 4.45813 | 4372 ft | 291 kts | 266° |
| 2026-04-28 17:19 | 51.75064 | 4.42570 | 4060 ft | 289 kts | 266° |
| 2026-04-28 17:19 | 51.74904 | 4.39397 | 3928 ft | 280 kts | 266° |
| 2026-04-28 17:19 | 51.74748 | 4.36311 | 3799 ft | 272 kts | 266° |
| 2026-04-28 17:19 | 51.74595 | 4.33321 | 3688 ft | 263 kts | 266° |
| 2026-04-28 17:20 | 51.74445 | 4.30422 | 3571 ft | 255 kts | 266° |
| 2026-04-28 17:20 | 51.74379 | 4.28550 | 3513 ft | 249 kts | 275° |
| 2026-04-28 17:20 | 51.75238 | 4.25351 | 3383 ft | 225 kts | 321° |
| 2026-04-28 17:20 | 51.76455 | 4.23947 | 3302 ft | 207 kts | 342° |
| 2026-04-28 17:21 | 51.77796 | 4.23370 | 3163 ft | 197 kts | 359° |
| 2026-04-28 17:21 | 51.79158 | 4.23003 | 3005 ft | 200 kts | 358° |
| 2026-04-28 17:21 | 51.80543 | 4.22625 | 2802 ft | 203 kts | 358° |
| 2026-04-28 17:22 | 51.83274 | 4.21885 | 2633 ft | 197 kts | 358° |
| 2026-04-28 17:22 | 51.84593 | 4.21525 | 2576 ft | 187 kts | 357° |
| 2026-04-28 17:22 | 51.85849 | 4.21216 | 2488 ft | 179 kts | 5° |
| 2026-04-28 17:23 | 51.87483 | 4.23403 | 2338 ft | 164 kts | 60° |
| 2026-04-28 17:23 | 51.88124 | 4.24942 | 2284 ft | 165 kts | 56° |
| 2026-04-28 17:23 | 51.88743 | 4.26496 | 2223 ft | 163 kts | 59° |
| 2026-04-28 17:23 | 51.89338 | 4.28039 | 2117 ft | 158 kts | 58° |
| 2026-04-28 17:24 | 51.89920 | 4.29516 | 1922 ft | 154 kts | 57° |
| 2026-04-28 17:24 | 51.90482 | 4.30937 | 1729 ft | 145 kts | 57° |
| 2026-04-28 17:24 | 51.91012 | 4.32271 | 1558 ft | 142 kts | 57° |
| 2026-04-28 17:24 | 51.91561 | 4.33647 | 1365 ft | 144 kts | 56° |
| 2026-04-28 17:25 | 51.92087 | 4.34982 | 1162 ft | 135 kts | 56° |
| 2026-04-28 17:25 | 51.93019 | 4.37318 | 819 ft | 122 kts | 56° |
| 2026-04-28 17:25 | 51.93483 | 4.38465 | 661 ft | 122 kts | 56° |
| 2026-04-28 17:26 | 51.93929 | 4.39618 | 500 ft | 121 kts | 55° |
| 2026-04-28 17:26 | 51.94386 | 4.40761 | 378 ft | 122 kts | 56° |
| 2026-04-28 17:26 | 51.94857 | 4.41943 | 211 ft | 125 kts | 57° |
| 2026-04-28 17:26 | 51.95328 | 4.43124 | 45 ft | 124 kts | 56° |
| 2026-04-28 17:27 | 51.95763 | 4.44210 | -1 ft | 94 kts | 57° |
| 2026-04-28 17:27 | 51.96011 | 4.44831 | -2 ft | 46 kts | 57° |
| 2026-04-28 17:27 | 51.96146 | 4.45168 | 1 ft | 24 kts | 64° |
| 2026-04-28 17:27 | 51.96111 | 4.45371 | 0 ft | 20 kts | 140° |
| 2026-04-28 17:28 | 51.96006 | 4.45309 | 0 ft | 19 kts | 237° |
| 2026-04-28 17:28 | 51.95866 | 4.44962 | 1 ft | 18 kts | 237° |
| 2026-04-28 17:28 | 51.95797 | 4.44786 | 0 ft | 21 kts | 237° |
| 2026-04-28 17:29 | 51.95698 | 4.44541 | 0 ft | 30 kts | 237° |
| 2026-04-28 17:29 | 51.95588 | 4.44264 | 0 ft | 28 kts | 237° |
| 2026-04-28 17:29 | 51.95484 | 4.44007 | 0 ft | 26 kts | 238° |
| 2026-04-28 17:30 | 51.95309 | 4.43570 | 0 ft | 17 kts | 236° |
| 2026-04-28 17:30 | 51.95136 | 4.43625 | 1 ft | 15 kts | 148° |
| 2026-04-28 17:30 | 51.95060 | 4.43702 | 1 ft | 10 kts | 153° |
| 2026-04-28 17:31 | 51.95010 | 4.43638 | 1 ft | 10 kts | 237° |
| 2026-04-28 17:31 | 51.94966 | 4.43478 | 2 ft | 6 kts | 311° |
| 2026-04-28 17:32 | 51.94993 | 4.43449 | 0 ft | 0 kts | 326° |